createdAt,value
2022-08-11T00:02:01.007Z,22.07
2022-08-11T00:04:37.026Z,22.10
2022-08-11T00:07:06.860Z,22.13
2022-08-11T00:09:39.666Z,22.11
2022-08-11T00:12:14.713Z,22.13
2022-08-11T00:14:43.106Z,22.12
2022-08-11T00:17:13.985Z,21.96
2022-08-11T00:20:12.862Z,21.79
2022-08-11T00:22:34.763Z,21.61
2022-08-11T00:25:10.948Z,21.67
2022-08-11T00:27:41.320Z,21.73
2022-08-11T00:30:11.942Z,21.72
2022-08-11T00:32:41.295Z,21.57
2022-08-11T00:35:51.210Z,21.40
2022-08-11T00:38:02.654Z,21.43
2022-08-11T00:40:39.398Z,21.06
2022-08-11T00:43:19.841Z,20.95
2022-08-11T00:46:03.906Z,20.70
2022-08-11T00:48:37.903Z,20.66
2022-08-11T00:51:15.060Z,20.61
2022-08-11T00:53:50.289Z,20.60
2022-08-11T00:56:45.559Z,20.43
2022-08-11T00:59:44.613Z,20.51
2022-08-11T01:02:21.047Z,20.36
2022-08-11T01:05:21.252Z,20.29
2022-08-11T01:08:22.376Z,20.49
2022-08-11T01:11:00.515Z,20.57
2022-08-11T01:13:47.959Z,20.54
2022-08-11T01:16:48.967Z,20.15
2022-08-11T01:20:39.744Z,20.03
2022-08-11T01:23:12.981Z,20.12
2022-08-11T01:26:02.322Z,19.95
2022-08-11T01:29:06.008Z,19.92
2022-08-11T01:31:59.659Z,20.04
2022-08-11T01:35:18.527Z,20.08
2022-08-11T01:38:18.430Z,20.11
2022-08-11T01:41:51.217Z,19.97
2022-08-11T01:44:40.456Z,19.82
2022-08-11T01:47:38.603Z,19.85
2022-08-11T01:50:28.097Z,19.67
2022-08-11T01:53:17.981Z,19.60
2022-08-11T01:55:51.448Z,19.59
2022-08-11T01:58:40.840Z,19.40
2022-08-11T02:01:17.869Z,19.31
2022-08-11T02:03:51.226Z,19.35
2022-08-11T02:06:40.989Z,19.37
2022-08-11T02:09:15.998Z,19.27
2022-08-11T02:11:47.095Z,19.26
2022-08-11T02:14:20.873Z,19.27
2022-08-11T02:16:54.379Z,19.39
2022-08-11T02:19:42.730Z,19.33
2022-08-11T02:22:39.908Z,19.49
2022-08-11T02:25:12.754Z,19.33
2022-08-11T02:27:49.667Z,19.11
2022-08-11T02:30:19.030Z,19.11
2022-08-11T02:33:08.437Z,19.19
2022-08-11T02:35:49.134Z,19.00
2022-08-11T02:38:21.895Z,19.09
2022-08-11T02:40:58.504Z,19.12
2022-08-11T02:43:36.657Z,19.01
2022-08-11T02:46:19.681Z,19.13
2022-08-11T02:49:15.374Z,19.17
2022-08-11T02:51:53.835Z,18.98
2022-08-11T02:54:25.236Z,19.08
2022-08-11T02:56:58.852Z,18.87
2022-08-11T02:59:52.321Z,18.67
2022-08-11T03:02:35.007Z,18.71
2022-08-11T03:05:09.179Z,18.93
2022-08-11T03:07:45.065Z,18.77
2022-08-11T03:10:19.868Z,18.69
2022-08-11T03:13:11.882Z,18.76
2022-08-11T03:16:02.171Z,18.61
2022-08-11T03:18:36.018Z,18.51
2022-08-11T03:21:09.102Z,18.51
2022-08-11T03:23:43.074Z,18.44
2022-08-11T03:26:17.036Z,18.70
2022-08-11T03:28:53.132Z,18.71
2022-08-11T03:31:25.289Z,18.65
2022-08-11T03:34:06.657Z,18.60
2022-08-11T03:37:16.958Z,18.62
2022-08-11T03:39:58.762Z,18.64
2022-08-11T03:42:32.066Z,18.69
2022-08-11T03:45:11.332Z,18.76
2022-08-11T03:47:55.179Z,18.37
2022-08-11T03:50:34.746Z,18.28
2022-08-11T03:53:13.635Z,18.55
2022-08-11T03:55:58.730Z,18.41
2022-08-11T03:58:42.074Z,18.50
2022-08-11T04:01:53.221Z,18.31
2022-08-11T04:04:57.863Z,18.14
2022-08-11T04:08:01.279Z,18.07
2022-08-11T04:11:08.653Z,18.05
2022-08-11T04:14:20.972Z,18.03
2022-08-11T04:16:58.721Z,17.88
2022-08-11T04:20:02.934Z,18.07
2022-08-11T04:22:55.279Z,18.01
2022-08-11T04:26:01.226Z,18.05
2022-08-11T04:28:53.030Z,18.01
2022-08-11T04:31:50.591Z,18.44
2022-08-11T04:34:46.032Z,18.39
2022-08-11T04:37:34.598Z,18.44
2022-08-11T04:40:38.191Z,18.60
2022-08-11T04:43:32.900Z,18.61
2022-08-11T04:46:19.004Z,18.61
2022-08-11T04:49:24.249Z,18.78
2022-08-11T04:52:42.324Z,18.74
2022-08-11T04:55:53.766Z,18.76
2022-08-11T04:58:44.402Z,18.96
2022-08-11T05:01:44.944Z,18.77
2022-08-11T05:05:08.670Z,18.85
2022-08-11T05:08:06.700Z,19.15
2022-08-11T05:10:49.690Z,19.20
2022-08-11T05:13:46.829Z,19.48
2022-08-11T05:16:34.941Z,19.49
2022-08-11T05:19:21.441Z,19.51
2022-08-11T05:22:11.762Z,19.47
2022-08-11T05:25:02.054Z,19.39
2022-08-11T05:27:51.889Z,19.91
2022-08-11T05:30:39.077Z,20.12
2022-08-11T05:33:27.803Z,20.38
2022-08-11T05:36:03.499Z,20.54
2022-08-11T05:38:52.907Z,20.75
2022-08-11T05:41:39.153Z,20.85
2022-08-11T05:44:24.893Z,21.06
2022-08-11T05:47:12.439Z,21.24
2022-08-11T05:49:59.590Z,21.20
2022-08-11T05:52:49.001Z,21.35
2022-08-11T05:56:02.361Z,21.53
2022-08-11T05:58:26.049Z,21.88
2022-08-11T06:00:54.089Z,21.94
2022-08-11T06:03:28.051Z,22.23
2022-08-11T06:05:58.001Z,22.40
2022-08-11T06:08:29.960Z,22.56
2022-08-11T06:11:01.660Z,22.70
2022-08-11T06:13:30.319Z,22.95
2022-08-11T06:16:01.574Z,23.15
2022-08-11T06:18:34.586Z,23.33
2022-08-11T06:21:02.856Z,23.38
2022-08-11T06:23:36.200Z,23.47
2022-08-11T06:26:09.512Z,23.71
2022-08-11T06:28:38.976Z,23.91
2022-08-11T06:31:13.930Z,23.99
2022-08-11T06:33:55.379Z,24.03
2022-08-11T06:36:29.000Z,24.26
2022-08-11T06:39:03.775Z,24.49
2022-08-11T06:41:34.876Z,24.64
2022-08-11T06:44:17.309Z,24.76
2022-08-11T06:46:47.971Z,24.99
2022-08-11T06:49:36.386Z,25.11
2022-08-11T06:52:06.083Z,25.26
2022-08-11T06:54:41.296Z,25.43
2022-08-11T06:57:31.587Z,25.72
2022-08-11T07:00:18.312Z,25.76
2022-08-11T07:02:53.006Z,25.90
2022-08-11T07:05:25.658Z,25.89
2022-08-11T07:08:53.647Z,26.09
2022-08-11T07:12:09.340Z,26.37
2022-08-11T07:15:00.376Z,26.41
2022-08-11T07:17:30.046Z,26.67
2022-08-11T07:20:19.333Z,26.92
2022-08-11T07:23:13.815Z,26.98
2022-08-11T07:26:01.454Z,27.14
2022-08-11T07:28:47.885Z,27.17
2022-08-11T07:31:29.169Z,27.35
2022-08-11T07:34:11.133Z,27.63
2022-08-11T07:36:43.935Z,27.74
2022-08-11T07:39:22.013Z,27.40
2022-08-11T07:41:50.859Z,27.43
2022-08-11T07:44:19.101Z,28.00
2022-08-11T07:47:07.506Z,28.25
2022-08-11T07:49:55.059Z,28.17
2022-08-11T07:52:30.538Z,28.18
2022-08-11T07:55:02.290Z,28.38
2022-08-11T07:58:15.248Z,28.61
2022-08-11T08:00:55.621Z,29.12
2022-08-11T08:03:54.534Z,28.98
2022-08-11T08:06:40.849Z,28.62
2022-08-11T08:09:27.049Z,28.56
2022-08-11T08:12:14.342Z,28.66
2022-08-11T08:15:01.096Z,29.13
2022-08-11T08:18:09.767Z,29.30
2022-08-11T08:20:38.145Z,29.02
2022-08-11T08:23:07.100Z,29.21
2022-08-11T08:25:36.337Z,29.24
2022-08-11T08:28:07.807Z,29.68
2022-08-11T08:30:51.093Z,30.20
2022-08-11T08:33:21.777Z,29.74
2022-08-11T08:35:54.418Z,29.79
2022-08-11T08:38:24.410Z,29.89
2022-08-11T08:40:55.926Z,29.83
2022-08-11T08:43:25.796Z,29.91
2022-08-11T08:45:56.702Z,30.24
2022-08-11T08:48:26.019Z,29.95
2022-08-11T08:51:22.049Z,30.15
2022-08-11T08:53:53.595Z,30.11
2022-08-11T08:56:28.105Z,30.45
2022-08-11T08:59:00.731Z,31.23
2022-08-11T09:01:31.172Z,31.18
2022-08-11T09:04:06.788Z,31.11
2022-08-11T09:06:40.071Z,31.37
2022-08-11T09:09:09.323Z,31.19
2022-08-11T09:11:53.555Z,31.61
2022-08-11T09:14:24.156Z,31.63
2022-08-11T09:16:52.709Z,31.69
2022-08-11T09:19:22.314Z,31.50
2022-08-11T09:22:13.401Z,32.08
2022-08-11T09:24:59.015Z,31.76
2022-08-11T09:27:27.745Z,31.90
2022-08-11T09:29:57.413Z,31.45
2022-08-11T09:32:26.539Z,31.82
2022-08-11T09:34:55.082Z,32.31
2022-08-11T09:37:55.239Z,32.92
2022-08-11T09:40:30.581Z,32.35
2022-08-11T09:43:16.533Z,32.58
2022-08-11T09:45:51.352Z,32.85
2022-08-11T09:48:19.962Z,32.92
2022-08-11T09:50:49.980Z,32.78
2022-08-11T09:53:34.961Z,33.40
2022-08-11T09:56:26.594Z,32.58
2022-08-11T09:58:53.593Z,32.41
2022-08-11T10:01:30.506Z,32.91
2022-08-11T10:04:02.310Z,32.45
2022-08-11T10:06:48.564Z,32.55
2022-08-11T10:09:25.191Z,32.78
2022-08-11T10:11:55.521Z,33.64
2022-08-11T10:14:45.506Z,33.37
2022-08-11T10:17:16.379Z,33.29
2022-08-11T10:19:48.844Z,33.15
2022-08-11T10:22:52.255Z,33.17
2022-08-11T10:28:33.454Z,32.90
2022-08-11T10:31:38.978Z,33.25
2022-08-11T10:34:15.486Z,33.58
2022-08-11T10:36:48.226Z,33.08
2022-08-11T10:39:18.309Z,33.48
2022-08-11T10:42:08.437Z,33.89
2022-08-11T10:44:43.621Z,33.38
2022-08-11T10:47:30.810Z,33.36
2022-08-11T10:50:18.187Z,33.81
2022-08-11T10:53:04.959Z,34.06
2022-08-11T10:55:50.537Z,34.26
2022-08-11T10:58:36.644Z,34.33
2022-08-11T11:01:05.390Z,34.06
2022-08-11T11:03:35.456Z,34.77
2022-08-11T11:06:27.664Z,35.26
2022-08-11T11:09:05.279Z,35.28
2022-08-11T11:11:54.602Z,36.07
2022-08-11T11:14:46.236Z,36.24
2022-08-11T11:17:36.376Z,36.26
2022-08-11T11:20:05.533Z,37.13
2022-08-11T11:22:41.124Z,37.30
2022-08-11T11:25:26.619Z,36.69
2022-08-11T11:28:09.874Z,36.02
2022-08-11T11:30:44.178Z,36.85
2022-08-11T11:33:16.753Z,37.27
2022-08-11T11:35:52.734Z,37.32
2022-08-11T11:38:22.072Z,37.74
2022-08-11T11:41:09.960Z,38.01
2022-08-11T11:43:38.428Z,38.09
2022-08-11T11:46:07.804Z,38.22
2022-08-11T11:48:37.165Z,39.17
2022-08-11T11:51:05.632Z,39.21
2022-08-11T11:53:35.190Z,38.47
2022-08-11T11:56:04.454Z,38.99
2022-08-11T11:58:50.190Z,39.56
2022-08-11T12:01:19.964Z,40.15
2022-08-11T12:03:51.290Z,39.70
2022-08-11T12:06:20.334Z,39.61
2022-08-11T12:08:51.445Z,38.65
2022-08-11T12:11:38.605Z,39.62
2022-08-11T12:14:10.392Z,39.83
2022-08-11T12:16:41.501Z,39.00
2022-08-11T12:19:11.787Z,38.40
2022-08-11T12:22:02.979Z,39.09
2022-08-11T12:24:51.709Z,38.96
2022-08-11T12:27:25.104Z,40.05
2022-08-11T12:29:56.933Z,39.31
2022-08-11T12:32:27.252Z,41.55
2022-08-11T12:34:57.696Z,42.01
2022-08-11T12:37:31.178Z,40.07
2022-08-11T12:40:49.595Z,40.06
2022-08-11T12:43:37.226Z,40.30
2022-08-11T12:46:09.247Z,40.95
2022-08-11T12:49:01.129Z,40.66
2022-08-11T12:52:13.022Z,40.91
2022-08-11T12:54:45.528Z,40.60
2022-08-11T12:57:37.150Z,39.81
2022-08-11T13:00:25.998Z,40.20
2022-08-11T13:03:12.730Z,40.66
2022-08-11T13:05:44.571Z,40.18
2022-08-11T13:08:15.183Z,40.57
2022-08-11T13:10:57.594Z,40.99
2022-08-11T13:13:55.742Z,40.64
2022-08-11T13:16:15.407Z,42.51
2022-08-11T13:18:44.062Z,41.05
2022-08-11T13:21:20.532Z,42.54
2022-08-11T13:24:00.792Z,42.60
2022-08-11T13:26:48.075Z,42.48
2022-08-11T13:29:24.131Z,41.90
2022-08-11T13:31:52.033Z,43.27
2022-08-11T13:34:21.601Z,41.47
2022-08-11T13:36:51.976Z,41.47
2022-08-11T13:39:21.283Z,42.36
2022-08-11T13:41:53.148Z,41.07
2022-08-11T13:44:25.788Z,40.73
2022-08-11T13:46:55.248Z,40.59
2022-08-11T13:49:23.762Z,41.38
2022-08-11T13:51:52.013Z,41.35
2022-08-11T13:54:23.008Z,41.32
2022-08-11T13:56:53.582Z,40.73
2022-08-11T13:59:29.489Z,41.04
2022-08-11T14:02:21.902Z,40.45
2022-08-11T14:04:55.190Z,41.71
2022-08-11T14:07:25.374Z,41.44
2022-08-11T14:09:57.721Z,41.43
2022-08-11T14:12:45.081Z,41.49
2022-08-11T14:15:19.873Z,42.29
2022-08-11T14:17:51.495Z,43.20
2022-08-11T14:20:39.181Z,42.46
2022-08-11T14:23:08.732Z,41.78
2022-08-11T14:25:59.721Z,41.84
2022-08-11T14:28:31.886Z,41.73
2022-08-11T14:31:05.305Z,40.73
2022-08-11T14:33:58.825Z,41.71
2022-08-11T14:36:23.068Z,41.70
2022-08-11T14:38:51.017Z,40.65
2022-08-11T14:41:36.982Z,41.66
2022-08-11T14:44:42.653Z,42.02
2022-08-11T14:47:23.345Z,43.26
2022-08-11T14:50:10.312Z,41.94
2022-08-11T14:52:40.974Z,42.21
2022-08-11T14:55:27.680Z,41.61
2022-08-11T14:57:57.198Z,41.55
2022-08-11T15:00:26.225Z,40.75
2022-08-11T15:03:10.650Z,41.30
2022-08-11T15:05:41.753Z,41.46
2022-08-11T15:08:43.823Z,41.76
2022-08-11T15:11:26.930Z,42.71
2022-08-11T15:13:55.095Z,41.20
2022-08-11T15:16:41.003Z,41.33
2022-08-11T15:19:12.036Z,41.99
2022-08-11T15:21:57.217Z,41.64
2022-08-11T15:24:25.228Z,41.31
2022-08-11T15:27:13.763Z,41.39
2022-08-11T15:30:00.357Z,41.25
2022-08-11T15:32:47.198Z,42.44
2022-08-11T15:35:39.120Z,42.65
2022-08-11T15:38:07.937Z,42.73
2022-08-11T15:40:55.570Z,42.60
2022-08-11T15:43:44.302Z,42.05
2022-08-11T15:46:14.471Z,41.23
2022-08-11T15:48:46.248Z,41.05
2022-08-11T15:51:25.383Z,40.54
2022-08-11T15:53:56.951Z,41.76
2022-08-11T15:56:26.227Z,42.26
2022-08-11T15:59:41.802Z,40.47
2022-08-11T16:02:20.202Z,40.39
2022-08-11T16:04:49.152Z,42.49
2022-08-11T16:07:19.162Z,40.99
2022-08-11T16:09:52.047Z,40.91
2022-08-11T16:12:26.558Z,40.60
2022-08-11T16:15:14.397Z,39.20
2022-08-11T16:17:50.286Z,39.46
2022-08-11T16:20:21.966Z,39.96
2022-08-11T16:22:55.199Z,40.60
2022-08-11T16:27:02.258Z,39.91
2022-08-11T16:28:20.854Z,39.67
2022-08-11T16:30:49.622Z,38.79
2022-08-11T16:33:48.792Z,38.67
2022-08-11T16:36:25.040Z,39.35
2022-08-11T16:38:55.108Z,39.74
2022-08-11T16:41:38.599Z,38.58
2022-08-11T16:44:37.084Z,37.67
2022-08-11T16:47:07.162Z,38.06
2022-08-11T16:49:37.228Z,38.15
2022-08-11T16:52:05.974Z,40.04
2022-08-11T16:54:36.423Z,40.27
2022-08-11T16:57:21.270Z,39.81
2022-08-11T16:59:50.668Z,40.03
2022-08-11T17:02:36.963Z,39.93
2022-08-11T17:05:26.001Z,40.45
2022-08-11T17:08:11.878Z,40.02
2022-08-11T17:11:04.015Z,39.97
2022-08-11T17:13:35.233Z,40.23
2022-08-11T17:16:12.603Z,40.13
2022-08-11T17:18:47.372Z,40.08
2022-08-11T17:21:21.513Z,38.74
2022-08-11T17:23:52.152Z,38.68
2022-08-11T17:26:24.323Z,40.01
2022-08-11T17:28:56.271Z,40.67
2022-08-11T17:31:42.297Z,39.17
2022-08-11T17:34:28.595Z,39.79
2022-08-11T17:36:56.852Z,38.52
2022-08-11T17:39:29.154Z,37.53
2022-08-11T17:42:16.885Z,37.04
2022-08-11T17:45:02.921Z,36.10
2022-08-11T17:47:49.411Z,35.91
2022-08-11T17:50:18.395Z,35.63
2022-08-11T17:53:05.302Z,35.17
2022-08-11T17:55:53.375Z,34.73
2022-08-11T17:58:41.229Z,34.71
2022-08-11T18:01:10.867Z,34.20
2022-08-11T18:03:40.731Z,34.19
2022-08-11T18:06:12.943Z,33.96
2022-08-11T18:09:02.894Z,33.72
2022-08-11T18:12:10.961Z,33.25
2022-08-11T18:14:58.105Z,32.87
2022-08-11T18:17:43.876Z,32.58
2022-08-11T18:20:29.113Z,32.38
2022-08-11T18:23:15.059Z,32.19
2022-08-11T18:26:03.208Z,32.14
2022-08-11T18:28:57.087Z,31.88
2022-08-11T18:31:44.349Z,31.83
2022-08-11T18:34:32.697Z,31.67
2022-08-11T18:37:23.881Z,31.50
2022-08-11T18:40:17.372Z,31.26
2022-08-11T18:43:04.219Z,31.16
2022-08-11T18:45:56.458Z,30.89
2022-08-11T18:48:54.585Z,30.61
2022-08-11T18:51:41.733Z,30.46
2022-08-11T18:54:28.937Z,30.31
2022-08-11T18:57:17.169Z,30.24
2022-08-11T19:00:04.498Z,30.05
2022-08-11T19:02:50.721Z,29.86
2022-08-11T19:06:32.302Z,29.72
2022-08-11T19:08:47.297Z,29.63
2022-08-11T19:11:32.870Z,29.48
2022-08-11T19:14:19.886Z,29.10
2022-08-11T19:17:05.898Z,29.03
2022-08-11T19:19:51.721Z,28.92
2022-08-11T19:22:39.136Z,28.99
2022-08-11T19:25:26.062Z,28.97
2022-08-11T19:28:12.353Z,28.86
2022-08-11T19:30:58.043Z,28.82
2022-08-11T19:34:00.232Z,28.65
2022-08-11T19:36:50.331Z,28.46
2022-08-11T19:39:38.066Z,28.04
2022-08-11T19:42:24.465Z,27.99
2022-08-11T19:45:09.993Z,28.02
2022-08-11T19:48:08.151Z,27.99
2022-08-11T19:51:01.025Z,27.70
2022-08-11T19:53:47.672Z,27.73
2022-08-11T19:56:34.656Z,27.38
2022-08-11T19:59:20.314Z,27.25
2022-08-11T20:02:13.739Z,27.18
2022-08-11T20:05:00.035Z,27.09
2022-08-11T20:07:46.304Z,26.97
2022-08-11T20:10:34.535Z,26.86
2022-08-11T20:13:21.865Z,26.81
2022-08-11T20:16:07.953Z,26.60
2022-08-11T20:18:53.764Z,26.58
2022-08-11T20:21:39.957Z,26.58
2022-08-11T20:24:26.571Z,26.55
2022-08-11T20:27:18.570Z,26.64
2022-08-11T20:30:11.383Z,26.62
2022-08-11T20:32:57.629Z,26.49
2022-08-11T20:35:43.654Z,26.40
2022-08-11T20:38:30.601Z,26.33
2022-08-11T20:41:16.471Z,26.17
2022-08-11T20:44:06.984Z,26.08
2022-08-11T20:46:56.993Z,26.07
2022-08-11T20:49:47.836Z,25.95
2022-08-11T20:52:42.257Z,25.87
2022-08-11T20:55:51.775Z,25.87
2022-08-11T20:59:02.412Z,25.74
2022-08-11T21:01:41.552Z,25.50
2022-08-11T21:04:28.963Z,25.36
2022-08-11T21:07:27.611Z,25.18
2022-08-11T21:10:22.999Z,25.29
2022-08-11T21:13:23.925Z,25.15
2022-08-11T21:16:25.034Z,25.13
2022-08-11T21:19:16.095Z,25.06
2022-08-11T21:22:03.963Z,25.00
2022-08-11T21:24:51.233Z,24.98
2022-08-11T21:27:37.457Z,24.87
2022-08-11T21:30:23.647Z,24.49
2022-08-11T21:33:09.124Z,24.50
2022-08-11T21:35:54.492Z,24.51
2022-08-11T21:38:41.039Z,24.47
2022-08-11T21:41:26.317Z,24.37
2022-08-11T21:44:13.066Z,24.35
2022-08-11T21:46:59.044Z,24.31
2022-08-11T21:49:44.853Z,24.21
2022-08-11T21:52:30.194Z,24.03
2022-08-11T21:55:17.130Z,24.05
2022-08-11T21:58:02.966Z,23.58
2022-08-11T22:00:48.158Z,23.42
2022-08-11T22:03:41.142Z,23.24
2022-08-11T22:06:36.167Z,23.29
2022-08-11T22:09:22.478Z,23.34
2022-08-11T22:12:30.211Z,23.29
2022-08-11T22:15:14.643Z,23.05
2022-08-11T22:18:00.212Z,23.16
2022-08-11T22:20:46.111Z,22.87
2022-08-11T22:23:35.953Z,23.20
2022-08-11T22:26:23.236Z,23.23
2022-08-11T22:29:11.192Z,23.12
2022-08-11T22:31:57.687Z,22.84
2022-08-11T22:34:52.572Z,22.75
2022-08-11T22:37:39.503Z,22.96
2022-08-11T22:40:26.468Z,23.08
2022-08-11T22:43:12.003Z,22.70
2022-08-11T22:45:58.829Z,22.70
2022-08-11T22:48:45.069Z,22.76
2022-08-11T22:51:31.877Z,22.51
2022-08-11T22:54:18.566Z,22.60
2022-08-11T22:57:03.905Z,22.55
2022-08-11T22:59:49.540Z,22.36
2022-08-11T23:02:36.473Z,22.19
2022-08-11T23:05:23.055Z,22.08
2022-08-11T23:08:08.355Z,22.13
2022-08-11T23:10:54.161Z,22.09
2022-08-11T23:13:39.666Z,22.15
2022-08-11T23:16:25.326Z,22.16
2022-08-11T23:19:12.025Z,22.37
2022-08-11T23:21:58.252Z,22.49
2022-08-11T23:24:44.072Z,22.30
2022-08-11T23:27:30.389Z,22.02
2022-08-11T23:30:18.784Z,22.01
2022-08-11T23:33:06.356Z,22.12
2022-08-11T23:35:57.965Z,21.84
2022-08-11T23:38:46.999Z,21.76
2022-08-11T23:41:32.665Z,21.70
2022-08-11T23:44:19.669Z,21.68
2022-08-11T23:47:05.364Z,21.59
2022-08-11T23:49:50.855Z,21.58
2022-08-11T23:52:37.885Z,21.69
2022-08-11T23:55:23.929Z,21.72
2022-08-11T23:58:09.694Z,21.57
